Brileytown, Texas
Current Conditions -  °F | °C
As of 4:35 PM on Sunday 23 Nov 2014 (Local Time) from KOCH Reporting Station
Clear Clear  
Wind Chill: 23°   Ceiling: Unl
Heat Index: 23°   Visibility: 10mi
Dew Point: 10°   Wind: 10mph
Humidity: 44%   Direction: 220°SW
Pressure: 29.49"   Gusts: 16mph
Location:  31.7931°N, 94.5281°W
Report Text: KOCH 232235Z AUTO 22009G14KT 10SM CLR 23/10 A2949 RMK AO1
Loading
Personal Weather Stations






























Interactive Weather Map New forecast layout! Learn more

10-Day Weather Forecast

Advertisements
Track Severe Weather on mobile